sensor_id;sensor_type;location;lat;lon;timestamp;temperature;humidity
7784;DHT22;19359;51.402;6.778;2022-08-24T00:00:17;20.10;99.90
7784;DHT22;19359;51.402;6.778;2022-08-24T00:02:45;20.10;99.90
7784;DHT22;19359;51.402;6.778;2022-08-24T00:05:12;20.10;99.90
7784;DHT22;19359;51.402;6.778;2022-08-24T00:07:39;20.10;99.90
7784;DHT22;19359;51.402;6.778;2022-08-24T00:10:08;20.20;99.90
7784;DHT22;19359;51.402;6.778;2022-08-24T00:12:34;20.10;99.90
7784;DHT22;19359;51.402;6.778;2022-08-24T00:15:04;20.10;99.90
7784;DHT22;19359;51.402;6.778;2022-08-24T00:17:31;20.10;99.90
7784;DHT22;19359;51.402;6.778;2022-08-24T00:19:59;20.00;99.90
7784;DHT22;19359;51.402;6.778;2022-08-24T00:22:26;19.90;99.90
7784;DHT22;19359;51.402;6.778;2022-08-24T00:24:53;19.80;99.90
7784;DHT22;19359;51.402;6.778;2022-08-24T00:27:21;19.90;99.90
7784;DHT22;19359;51.402;6.778;2022-08-24T00:29:48;19.90;99.90
7784;DHT22;19359;51.402;6.778;2022-08-24T00:32:16;20.00;99.90
7784;DHT22;19359;51.402;6.778;2022-08-24T00:34:42;19.90;99.90
7784;DHT22;19359;51.402;6.778;2022-08-24T00:37:09;19.80;99.90
7784;DHT22;19359;51.402;6.778;2022-08-24T00:39:36;19.80;99.90
7784;DHT22;19359;51.402;6.778;2022-08-24T00:42:03;19.70;99.90
7784;DHT22;19359;51.402;6.778;2022-08-24T00:47:00;19.70;99.90
7784;DHT22;19359;51.402;6.778;2022-08-24T00:49:34;19.70;99.90
7784;DHT22;19359;51.402;6.778;2022-08-24T00:52:04;19.70;99.90
7784;DHT22;19359;51.402;6.778;2022-08-24T00:54:38;19.60;99.90
7784;DHT22;19359;51.402;6.778;2022-08-24T00:57:07;19.50;99.90
7784;DHT22;19359;51.402;6.778;2022-08-24T00:59:37;19.50;99.90
7784;DHT22;19359;51.402;6.778;2022-08-24T01:02:07;19.50;99.90
7784;DHT22;19359;51.402;6.778;2022-08-24T01:04:41;19.50;99.90
7784;DHT22;19359;51.402;6.778;2022-08-24T01:07:09;19.50;99.90
7784;DHT22;19359;51.402;6.778;2022-08-24T01:09:36;19.50;99.90
7784;DHT22;19359;51.402;6.778;2022-08-24T01:12:04;19.60;99.90
7784;DHT22;19359;51.402;6.778;2022-08-24T01:14:31;19.60;99.90
7784;DHT22;19359;51.402;6.778;2022-08-24T01:16:57;19.50;99.90
7784;DHT22;19359;51.402;6.778;2022-08-24T01:19:46;19.50;99.90
7784;DHT22;19359;51.402;6.778;2022-08-24T01:22:29;19.40;99.90
7784;DHT22;19359;51.402;6.778;2022-08-24T01:24:59;19.40;99.90
7784;DHT22;19359;51.402;6.778;2022-08-24T01:27:27;19.30;99.90
7784;DHT22;19359;51.402;6.778;2022-08-24T01:29:55;19.30;99.90
7784;DHT22;19359;51.402;6.778;2022-08-24T01:32:24;19.20;99.90
7784;DHT22;19359;51.402;6.778;2022-08-24T01:34:52;19.10;99.90
7784;DHT22;19359;51.402;6.778;2022-08-24T01:37:20;19.10;99.90
7784;DHT22;19359;51.402;6.778;2022-08-24T01:39:48;19.10;99.90
7784;DHT22;19359;51.402;6.778;2022-08-24T01:42:17;19.10;99.90
7784;DHT22;19359;51.402;6.778;2022-08-24T01:44:45;19.10;99.90
7784;DHT22;19359;51.402;6.778;2022-08-24T01:47:14;19.00;99.90
7784;DHT22;19359;51.402;6.778;2022-08-24T01:49:43;19.00;99.90
7784;DHT22;19359;51.402;6.778;2022-08-24T01:52:14;19.00;99.90
7784;DHT22;19359;51.402;6.778;2022-08-24T01:54:41;18.90;99.90
7784;DHT22;19359;51.402;6.778;2022-08-24T01:57:09;18.90;99.90
7784;DHT22;19359;51.402;6.778;2022-08-24T01:59:37;18.90;1.00
7784;DHT22;19359;51.402;6.778;2022-08-24T02:02:08;18.90;99.90
7784;DHT22;19359;51.402;6.778;2022-08-24T02:04:35;18.80;99.90
7784;DHT22;19359;51.402;6.778;2022-08-24T02:07:02;18.80;99.90
7784;DHT22;19359;51.402;6.778;2022-08-24T02:09:30;18.80;99.90
7784;DHT22;19359;51.402;6.778;2022-08-24T02:11:57;18.80;99.90
7784;DHT22;19359;51.402;6.778;2022-08-24T02:14:23;18.90;99.90
7784;DHT22;19359;51.402;6.778;2022-08-24T02:16:51;18.80;99.90
7784;DHT22;19359;51.402;6.778;2022-08-24T02:19:18;18.70;99.90
7784;DHT22;19359;51.402;6.778;2022-08-24T02:21:45;18.70;1.00
7784;DHT22;19359;51.402;6.778;2022-08-24T02:24:12;18.70;99.90
7784;DHT22;19359;51.402;6.778;2022-08-24T02:31:33;18.80;99.90
7784;DHT22;19359;51.402;6.778;2022-08-24T02:34:03;18.70;99.90
7784;DHT22;19359;51.402;6.778;2022-08-24T02:36:30;18.70;99.90
7784;DHT22;19359;51.402;6.778;2022-08-24T02:38:57;18.60;99.90
7784;DHT22;19359;51.402;6.778;2022-08-24T02:41:24;18.60;99.90
7784;DHT22;19359;51.402;6.778;2022-08-24T02:43:51;18.60;99.90
7784;DHT22;19359;51.402;6.778;2022-08-24T02:46:19;18.60;99.90
7784;DHT22;19359;51.402;6.778;2022-08-24T02:48:47;18.60;99.90
7784;DHT22;19359;51.402;6.778;2022-08-24T02:51:23;18.60;99.90
7784;DHT22;19359;51.402;6.778;2022-08-24T02:53:50;18.50;99.90
7784;DHT22;19359;51.402;6.778;2022-08-24T02:56:17;18.50;99.90
7784;DHT22;19359;51.402;6.778;2022-08-24T02:58:45;18.50;99.90
7784;DHT22;19359;51.402;6.778;2022-08-24T03:01:13;18.50;99.90
7784;DHT22;19359;51.402;6.778;2022-08-24T03:03:40;18.50;99.90
7784;DHT22;19359;51.402;6.778;2022-08-24T03:06:07;18.50;99.90
7784;DHT22;19359;51.402;6.778;2022-08-24T03:08:36;18.40;99.90
7784;DHT22;19359;51.402;6.778;2022-08-24T03:11:04;18.40;99.90
7784;DHT22;19359;51.402;6.778;2022-08-24T03:13:31;18.40;99.90
7784;DHT22;19359;51.402;6.778;2022-08-24T03:15:58;18.30;99.90
7784;DHT22;19359;51.402;6.778;2022-08-24T03:18:26;18.30;99.90
7784;DHT22;19359;51.402;6.778;2022-08-24T03:20:53;18.30;99.90
7784;DHT22;19359;51.402;6.778;2022-08-24T03:23:20;18.40;99.90
7784;DHT22;19359;51.402;6.778;2022-08-24T03:25:50;18.30;99.90
7784;DHT22;19359;51.402;6.778;2022-08-24T03:28:17;18.30;99.90
7784;DHT22;19359;51.402;6.778;2022-08-24T03:30:44;18.30;99.90
7784;DHT22;19359;51.402;6.778;2022-08-24T03:33:11;18.20;99.90
7784;DHT22;19359;51.402;6.778;2022-08-24T03:38:05;18.20;99.90
7784;DHT22;19359;51.402;6.778;2022-08-24T03:40:33;18.20;99.90
7784;DHT22;19359;51.402;6.778;2022-08-24T03:43:01;18.20;99.90
7784;DHT22;19359;51.402;6.778;2022-08-24T03:45:29;18.10;99.90
7784;DHT22;19359;51.402;6.778;2022-08-24T03:47:56;18.10;99.90
7784;DHT22;19359;51.402;6.778;2022-08-24T03:50:23;18.10;99.90
7784;DHT22;19359;51.402;6.778;2022-08-24T03:52:51;18.10;99.90
7784;DHT22;19359;51.402;6.778;2022-08-24T03:55:18;18.10;99.90
7784;DHT22;19359;51.402;6.778;2022-08-24T03:57:45;18.10;99.90
7784;DHT22;19359;51.402;6.778;2022-08-24T04:00:14;18.10;99.90
7784;DHT22;19359;51.402;6.778;2022-08-24T04:02:42;18.10;99.90
7784;DHT22;19359;51.402;6.778;2022-08-24T04:05:10;18.10;99.90
7784;DHT22;19359;51.402;6.778;2022-08-24T04:07:37;18.10;99.90
7784;DHT22;19359;51.402;6.778;2022-08-24T04:10:05;18.00;99.90
7784;DHT22;19359;51.402;6.778;2022-08-24T04:12:32;18.00;99.90
7784;DHT22;19359;51.402;6.778;2022-08-24T04:14:59;18.00;99.90
7784;DHT22;19359;51.402;6.778;2022-08-24T04:17:27;17.90;99.90
7784;DHT22;19359;51.402;6.778;2022-08-24T04:19:54;18.00;99.90
7784;DHT22;19359;51.402;6.778;2022-08-24T04:22:24;17.90;99.90
7784;DHT22;19359;51.402;6.778;2022-08-24T04:24:51;17.90;99.90
7784;DHT22;19359;51.402;6.778;2022-08-24T04:27:19;17.90;99.90
7784;DHT22;19359;51.402;6.778;2022-08-24T04:29:46;17.90;99.90
7784;DHT22;19359;51.402;6.778;2022-08-24T04:32:13;17.90;99.90
7784;DHT22;19359;51.402;6.778;2022-08-24T04:34:42;17.90;99.90
7784;DHT22;19359;51.402;6.778;2022-08-24T04:37:09;17.80;99.90
7784;DHT22;19359;51.402;6.778;2022-08-24T04:39:36;17.80;99.90
7784;DHT22;19359;51.402;6.778;2022-08-24T04:42:03;17.90;99.90
7784;DHT22;19359;51.402;6.778;2022-08-24T04:44:30;17.90;99.90
7784;DHT22;19359;51.402;6.778;2022-08-24T04:46:57;17.80;99.90
7784;DHT22;19359;51.402;6.778;2022-08-24T04:49:24;17.90;99.90
7784;DHT22;19359;51.402;6.778;2022-08-24T04:51:53;17.90;99.90
7784;DHT22;19359;51.402;6.778;2022-08-24T04:59:14;17.80;99.90
7784;DHT22;19359;51.402;6.778;2022-08-24T05:01:41;17.80;99.90
7784;DHT22;19359;51.402;6.778;2022-08-24T05:04:08;17.90;99.90
7784;DHT22;19359;51.402;6.778;2022-08-24T05:06:35;17.90;99.90
7784;DHT22;19359;51.402;6.778;2022-08-24T05:09:04;17.90;99.90
7784;DHT22;19359;51.402;6.778;2022-08-24T05:11:31;18.00;99.90
7784;DHT22;19359;51.402;6.778;2022-08-24T05:13:58;18.00;99.90
7784;DHT22;19359;51.402;6.778;2022-08-24T05:16:25;18.00;99.90
7784;DHT22;19359;51.402;6.778;2022-08-24T05:18:53;18.00;99.90
7784;DHT22;19359;51.402;6.778;2022-08-24T05:21:22;18.00;99.90
7784;DHT22;19359;51.402;6.778;2022-08-24T05:23:49;18.20;99.90
7784;DHT22;19359;51.402;6.778;2022-08-24T05:26:20;18.20;99.90
7784;DHT22;19359;51.402;6.778;2022-08-24T05:31:19;18.30;99.90
7784;DHT22;19359;51.402;6.778;2022-08-24T05:33:47;18.40;99.90
7784;DHT22;19359;51.402;6.778;2022-08-24T05:36:16;18.50;99.90
7784;DHT22;19359;51.402;6.778;2022-08-24T05:38:43;18.40;99.90
7784;DHT22;19359;51.402;6.778;2022-08-24T05:41:10;18.50;99.90
7784;DHT22;19359;51.402;6.778;2022-08-24T05:43:38;18.50;99.90
7784;DHT22;19359;51.402;6.778;2022-08-24T05:46:05;18.60;99.90
7784;DHT22;19359;51.402;6.778;2022-08-24T05:48:32;18.70;99.90
7784;DHT22;19359;51.402;6.778;2022-08-24T05:53:29;18.80;99.90
7784;DHT22;19359;51.402;6.778;2022-08-24T05:55:56;18.80;99.90
7784;DHT22;19359;51.402;6.778;2022-08-24T05:58:22;18.90;99.90
7784;DHT22;19359;51.402;6.778;2022-08-24T06:00:51;18.90;99.90
7784;DHT22;19359;51.402;6.778;2022-08-24T06:03:17;18.90;99.90
7784;DHT22;19359;51.402;6.778;2022-08-24T06:05:44;18.90;99.90
7784;DHT22;19359;51.402;6.778;2022-08-24T06:08:13;18.90;99.90
7784;DHT22;19359;51.402;6.778;2022-08-24T06:10:41;18.90;99.90
7784;DHT22;19359;51.402;6.778;2022-08-24T06:13:09;18.90;99.90
7784;DHT22;19359;51.402;6.778;2022-08-24T06:15:38;19.00;99.90
7784;DHT22;19359;51.402;6.778;2022-08-24T06:18:06;19.00;99.90
7784;DHT22;19359;51.402;6.778;2022-08-24T06:20:38;19.20;99.90
7784;DHT22;19359;51.402;6.778;2022-08-24T06:23:06;19.40;99.90
7784;DHT22;19359;51.402;6.778;2022-08-24T06:25:33;19.50;99.90
7784;DHT22;19359;51.402;6.778;2022-08-24T06:28:17;19.80;99.90
7784;DHT22;19359;51.402;6.778;2022-08-24T06:33:13;20.10;99.90
7784;DHT22;19359;51.402;6.778;2022-08-24T06:38:07;20.40;99.90
7784;DHT22;19359;51.402;6.778;2022-08-24T06:40:34;20.60;99.90
7784;DHT22;19359;51.402;6.778;2022-08-24T06:43:02;20.60;99.90
7784;DHT22;19359;51.402;6.778;2022-08-24T06:45:29;20.70;99.90
7784;DHT22;19359;51.402;6.778;2022-08-24T06:47:57;20.80;99.90
7784;DHT22;19359;51.402;6.778;2022-08-24T06:50:25;20.80;99.90
7784;DHT22;19359;51.402;6.778;2022-08-24T06:52:52;21.10;99.90
7784;DHT22;19359;51.402;6.778;2022-08-24T06:55:19;21.30;99.90
7784;DHT22;19359;51.402;6.778;2022-08-24T06:57:46;21.40;99.90
7784;DHT22;19359;51.402;6.778;2022-08-24T07:00:14;21.40;99.90
7784;DHT22;19359;51.402;6.778;2022-08-24T07:02:41;21.50;99.90
7784;DHT22;19359;51.402;6.778;2022-08-24T07:05:09;21.60;99.90
7784;DHT22;19359;51.402;6.778;2022-08-24T07:07:37;21.80;99.90
7784;DHT22;19359;51.402;6.778;2022-08-24T07:10:05;21.90;99.90
7784;DHT22;19359;51.402;6.778;2022-08-24T07:12:33;21.90;99.90
7784;DHT22;19359;51.402;6.778;2022-08-24T07:14:59;22.20;99.90
7784;DHT22;19359;51.402;6.778;2022-08-24T07:17:26;22.20;99.90
7784;DHT22;19359;51.402;6.778;2022-08-24T07:19:54;22.50;99.90
7784;DHT22;19359;51.402;6.778;2022-08-24T07:22:21;22.60;99.90
7784;DHT22;19359;51.402;6.778;2022-08-24T07:24:49;22.60;99.90
7784;DHT22;19359;51.402;6.778;2022-08-24T07:27:15;22.70;99.90
7784;DHT22;19359;51.402;6.778;2022-08-24T07:29:42;22.80;99.90
7784;DHT22;19359;51.402;6.778;2022-08-24T07:32:09;22.90;99.90
7784;DHT22;19359;51.402;6.778;2022-08-24T07:34:36;23.10;99.90
7784;DHT22;19359;51.402;6.778;2022-08-24T07:37:03;23.20;99.90
7784;DHT22;19359;51.402;6.778;2022-08-24T07:39:30;23.40;99.90
7784;DHT22;19359;51.402;6.778;2022-08-24T07:41:58;23.40;99.90
7784;DHT22;19359;51.402;6.778;2022-08-24T07:44:25;23.70;99.90
7784;DHT22;19359;51.402;6.778;2022-08-24T07:46:52;23.80;99.90
7784;DHT22;19359;51.402;6.778;2022-08-24T07:49:19;23.90;99.90
7784;DHT22;19359;51.402;6.778;2022-08-24T07:51:45;23.90;99.90
7784;DHT22;19359;51.402;6.778;2022-08-24T07:54:13;23.90;99.90
7784;DHT22;19359;51.402;6.778;2022-08-24T07:56:40;24.10;99.90
7784;DHT22;19359;51.402;6.778;2022-08-24T07:59:08;24.20;99.90
7784;DHT22;19359;51.402;6.778;2022-08-24T08:01:35;24.40;99.90
7784;DHT22;19359;51.402;6.778;2022-08-24T08:06:30;24.70;99.90
7784;DHT22;19359;51.402;6.778;2022-08-24T08:08:56;24.80;99.90
7784;DHT22;19359;51.402;6.778;2022-08-24T08:13:51;25.10;99.90
7784;DHT22;19359;51.402;6.778;2022-08-24T08:16:19;25.20;99.90
7784;DHT22;19359;51.402;6.778;2022-08-24T08:18:46;25.30;99.90
7784;DHT22;19359;51.402;6.778;2022-08-24T08:21:13;25.50;99.90
7784;DHT22;19359;51.402;6.778;2022-08-24T08:23:54;25.70;99.90
7784;DHT22;19359;51.402;6.778;2022-08-24T08:26:38;25.80;99.90
7784;DHT22;19359;51.402;6.778;2022-08-24T08:29:05;25.90;99.90
7784;DHT22;19359;51.402;6.778;2022-08-24T08:31:33;26.10;99.90
7784;DHT22;19359;51.402;6.778;2022-08-24T08:34:00;26.20;99.90
7784;DHT22;19359;51.402;6.778;2022-08-24T08:36:27;26.30;99.90
7784;DHT22;19359;51.402;6.778;2022-08-24T08:38:54;26.30;99.90
7784;DHT22;19359;51.402;6.778;2022-08-24T08:41:50;26.30;99.90
7784;DHT22;19359;51.402;6.778;2022-08-24T08:44:39;26.50;99.90
7784;DHT22;19359;51.402;6.778;2022-08-24T08:47:21;26.50;99.90
7784;DHT22;19359;51.402;6.778;2022-08-24T08:50:06;26.60;99.90
7784;DHT22;19359;51.402;6.778;2022-08-24T08:53:04;26.80;99.90
7784;DHT22;19359;51.402;6.778;2022-08-24T08:55:41;27.00;99.90
7784;DHT22;19359;51.402;6.778;2022-08-24T08:58:22;27.10;99.90
7784;DHT22;19359;51.402;6.778;2022-08-24T09:01:02;27.30;99.90
7784;DHT22;19359;51.402;6.778;2022-08-24T09:03:51;27.40;99.90
7784;DHT22;19359;51.402;6.778;2022-08-24T09:06:43;27.40;99.90
7784;DHT22;19359;51.402;6.778;2022-08-24T09:09:24;27.40;99.90
7784;DHT22;19359;51.402;6.778;2022-08-24T09:12:02;27.40;99.90
7784;DHT22;19359;51.402;6.778;2022-08-24T09:14:44;27.60;99.90
7784;DHT22;19359;51.402;6.778;2022-08-24T09:17:30;27.90;99.90
7784;DHT22;19359;51.402;6.778;2022-08-24T09:20:13;27.80;99.90
7784;DHT22;19359;51.402;6.778;2022-08-24T09:22:43;27.80;99.90
7784;DHT22;19359;51.402;6.778;2022-08-24T09:25:21;27.80;99.90
7784;DHT22;19359;51.402;6.778;2022-08-24T09:28:14;27.70;99.90
7784;DHT22;19359;51.402;6.778;2022-08-24T09:30:57;27.70;99.90
7784;DHT22;19359;51.402;6.778;2022-08-24T09:33:35;28.10;99.90
7784;DHT22;19359;51.402;6.778;2022-08-24T09:36:08;28.30;99.90
7784;DHT22;19359;51.402;6.778;2022-08-24T09:39:04;28.50;99.90
7784;DHT22;19359;51.402;6.778;2022-08-24T09:41:54;28.70;99.90
7784;DHT22;19359;51.402;6.778;2022-08-24T09:44:53;28.80;99.90
7784;DHT22;19359;51.402;6.778;2022-08-24T09:47:53;29.00;99.90
7784;DHT22;19359;51.402;6.778;2022-08-24T09:50:35;29.20;99.90
7784;DHT22;19359;51.402;6.778;2022-08-24T09:53:22;29.10;99.90
7784;DHT22;19359;51.402;6.778;2022-08-24T09:56:13;29.20;99.90
7784;DHT22;19359;51.402;6.778;2022-08-24T09:58:56;29.50;99.90
7784;DHT22;19359;51.402;6.778;2022-08-24T10:01:33;29.60;99.90
7784;DHT22;19359;51.402;6.778;2022-08-24T10:04:09;29.60;99.90
7784;DHT22;19359;51.402;6.778;2022-08-24T10:06:53;29.60;99.90
7784;DHT22;19359;51.402;6.778;2022-08-24T10:10:04;29.40;99.90
7784;DHT22;19359;51.402;6.778;2022-08-24T10:12:48;29.50;99.90
7784;DHT22;19359;51.402;6.778;2022-08-24T10:15:20;29.50;99.90
7784;DHT22;19359;51.402;6.778;2022-08-24T10:18:03;29.60;99.90
7784;DHT22;19359;51.402;6.778;2022-08-24T10:20:47;29.70;99.90
7784;DHT22;19359;51.402;6.778;2022-08-24T10:23:35;29.70;99.90
7784;DHT22;19359;51.402;6.778;2022-08-24T10:26:10;29.70;99.90
7784;DHT22;19359;51.402;6.778;2022-08-24T10:28:55;29.90;99.90
7784;DHT22;19359;51.402;6.778;2022-08-24T10:31:32;30.00;99.90
7784;DHT22;19359;51.402;6.778;2022-08-24T10:34:22;30.00;99.90
7784;DHT22;19359;51.402;6.778;2022-08-24T10:37:25;30.20;99.90
7784;DHT22;19359;51.402;6.778;2022-08-24T10:40:12;30.10;99.90
7784;DHT22;19359;51.402;6.778;2022-08-24T10:55:20;30.60;99.90
7784;DHT22;19359;51.402;6.778;2022-08-24T10:57:58;30.60;99.90
7784;DHT22;19359;51.402;6.778;2022-08-24T11:00:31;30.80;99.90
7784;DHT22;19359;51.402;6.778;2022-08-24T11:03:10;30.80;99.90
7784;DHT22;19359;51.402;6.778;2022-08-24T11:05:43;30.80;99.90
7784;DHT22;19359;51.402;6.778;2022-08-24T11:08:18;31.00;99.90
7784;DHT22;19359;51.402;6.778;2022-08-24T11:11:01;31.20;99.90
7784;DHT22;19359;51.402;6.778;2022-08-24T11:13:29;31.40;99.90
7784;DHT22;19359;51.402;6.778;2022-08-24T11:15:57;31.40;99.90
7784;DHT22;19359;51.402;6.778;2022-08-24T11:18:25;31.30;99.90
7784;DHT22;19359;51.402;6.778;2022-08-24T11:20:54;31.30;99.90
7784;DHT22;19359;51.402;6.778;2022-08-24T11:23:23;31.30;99.90
7784;DHT22;19359;51.402;6.778;2022-08-24T11:25:56;31.00;99.90
7784;DHT22;19359;51.402;6.778;2022-08-24T11:28:29;30.70;99.90
7784;DHT22;19359;51.402;6.778;2022-08-24T11:30:57;30.70;99.90
7784;DHT22;19359;51.402;6.778;2022-08-24T11:33:30;30.80;99.90
7784;DHT22;19359;51.402;6.778;2022-08-24T11:36:00;31.80;99.90
7784;DHT22;19359;51.402;6.778;2022-08-24T11:38:30;31.90;99.90
7784;DHT22;19359;51.402;6.778;2022-08-24T11:41:08;32.20;99.90
7784;DHT22;19359;51.402;6.778;2022-08-24T11:43:47;31.70;99.90
7784;DHT22;19359;51.402;6.778;2022-08-24T11:46:23;31.70;99.90
7784;DHT22;19359;51.402;6.778;2022-08-24T11:49:02;31.50;99.90
7784;DHT22;19359;51.402;6.778;2022-08-24T11:51:40;31.80;99.90
7784;DHT22;19359;51.402;6.778;2022-08-24T11:54:17;32.00;99.90
7784;DHT22;19359;51.402;6.778;2022-08-24T11:56:59;32.00;99.90
7784;DHT22;19359;51.402;6.778;2022-08-24T11:59:36;31.80;99.90
7784;DHT22;19359;51.402;6.778;2022-08-24T12:02:07;32.50;99.90
7784;DHT22;19359;51.402;6.778;2022-08-24T12:04:44;32.90;99.90
7784;DHT22;19359;51.402;6.778;2022-08-24T12:07:24;33.10;99.90
7784;DHT22;19359;51.402;6.778;2022-08-24T12:10:13;33.50;99.90
7784;DHT22;19359;51.402;6.778;2022-08-24T12:12:47;34.20;99.90
7784;DHT22;19359;51.402;6.778;2022-08-24T12:15:19;34.80;99.90
7784;DHT22;19359;51.402;6.778;2022-08-24T12:17:51;34.80;99.90
7784;DHT22;19359;51.402;6.778;2022-08-24T12:20:26;35.30;99.90
7784;DHT22;19359;51.402;6.778;2022-08-24T12:23:01;35.70;99.90
7784;DHT22;19359;51.402;6.778;2022-08-24T12:25:30;35.80;99.90
7784;DHT22;19359;51.402;6.778;2022-08-24T12:28:22;36.10;99.90
7784;DHT22;19359;51.402;6.778;2022-08-24T12:30:52;36.10;99.90
7784;DHT22;19359;51.402;6.778;2022-08-24T12:33:26;36.40;99.90
7784;DHT22;19359;51.402;6.778;2022-08-24T12:35:59;36.60;99.90
7784;DHT22;19359;51.402;6.778;2022-08-24T12:38:32;36.60;99.90
7784;DHT22;19359;51.402;6.778;2022-08-24T12:41:02;35.70;99.90
7784;DHT22;19359;51.402;6.778;2022-08-24T12:43:36;35.60;99.90
7784;DHT22;19359;51.402;6.778;2022-08-24T12:46:05;35.70;99.90
7784;DHT22;19359;51.402;6.778;2022-08-24T12:48:36;36.00;99.90
7784;DHT22;19359;51.402;6.778;2022-08-24T12:51:13;36.40;99.90
7784;DHT22;19359;51.402;6.778;2022-08-24T12:53:58;36.90;99.90
7784;DHT22;19359;51.402;6.778;2022-08-24T12:56:54;37.40;99.90
7784;DHT22;19359;51.402;6.778;2022-08-24T12:59:25;37.80;99.90
7784;DHT22;19359;51.402;6.778;2022-08-24T13:01:59;37.70;99.90
7784;DHT22;19359;51.402;6.778;2022-08-24T13:04:36;38.20;99.90
7784;DHT22;19359;51.402;6.778;2022-08-24T13:07:07;39.00;97.40
7784;DHT22;19359;51.402;6.778;2022-08-24T13:09:37;39.10;99.90
7784;DHT22;19359;51.402;6.778;2022-08-24T13:15:23;38.50;99.90
7784;DHT22;19359;51.402;6.778;2022-08-24T13:17:52;38.80;91.50
7784;DHT22;19359;51.402;6.778;2022-08-24T13:20:21;39.10;90.30
7784;DHT22;19359;51.402;6.778;2022-08-24T13:23:03;39.10;96.90
7784;DHT22;19359;51.402;6.778;2022-08-24T13:25:53;39.40;95.70
7784;DHT22;19359;51.402;6.778;2022-08-24T13:28:37;39.60;81.30
7784;DHT22;19359;51.402;6.778;2022-08-24T13:31:23;39.50;92.40
7784;DHT22;19359;51.402;6.778;2022-08-24T13:33:52;38.80;89.10
7784;DHT22;19359;51.402;6.778;2022-08-24T13:36:53;39.20;86.80
7784;DHT22;19359;51.402;6.778;2022-08-24T13:42:51;40.80;85.80
7784;DHT22;19359;51.402;6.778;2022-08-24T13:45:29;40.60;61.30
7784;DHT22;19359;51.402;6.778;2022-08-24T13:48:09;38.90;53.10
7784;DHT22;19359;51.402;6.778;2022-08-24T13:50:46;38.80;50.20
7784;DHT22;19359;51.402;6.778;2022-08-24T13:53:35;38.90;48.30
7784;DHT22;19359;51.402;6.778;2022-08-24T13:56:37;38.80;61.00
7784;DHT22;19359;51.402;6.778;2022-08-24T13:59:15;38.50;56.50
7784;DHT22;19359;51.402;6.778;2022-08-24T14:02:02;38.50;42.80
7784;DHT22;19359;51.402;6.778;2022-08-24T14:04:40;37.70;39.00
7784;DHT22;19359;51.402;6.778;2022-08-24T14:07:12;37.60;51.70
7784;DHT22;19359;51.402;6.778;2022-08-24T14:09:54;36.90;47.70
7784;DHT22;19359;51.402;6.778;2022-08-24T14:12:43;36.40;33.50
7784;DHT22;19359;51.402;6.778;2022-08-24T14:15:20;36.30;45.10
7784;DHT22;19359;51.402;6.778;2022-08-24T14:17:56;36.20;32.30
7784;DHT22;19359;51.402;6.778;2022-08-24T14:20:51;35.90;31.40
7784;DHT22;19359;51.402;6.778;2022-08-24T14:23:25;35.90;43.10
7784;DHT22;19359;51.402;6.778;2022-08-24T14:32:34;35.50;30.10
7784;DHT22;19359;51.402;6.778;2022-08-24T14:38:21;36.40;30.60
7784;DHT22;19359;51.402;6.778;2022-08-24T14:41:06;36.40;42.90
7784;DHT22;19359;51.402;6.778;2022-08-24T14:46:43;37.90;45.70
7784;DHT22;19359;51.402;6.778;2022-08-24T14:49:21;40.50;35.10
7784;DHT22;19359;51.402;6.778;2022-08-24T14:52:20;40.50;48.00
7784;DHT22;19359;51.402;6.778;2022-08-24T14:55:03;40.80;44.10
7784;DHT22;19359;51.402;6.778;2022-08-24T14:57:42;41.30;41.00
7784;DHT22;19359;51.402;6.778;2022-08-24T15:00:14;41.30;36.20
7784;DHT22;19359;51.402;6.778;2022-08-24T15:06:15;40.50;26.50
7784;DHT22;19359;51.402;6.778;2022-08-24T15:08:45;40.00;10.90
7784;DHT22;19359;51.402;6.778;2022-08-24T15:11:13;40.30;9.40
7784;DHT22;19359;51.402;6.778;2022-08-24T15:13:46;40.80;8.40
7784;DHT22;19359;51.402;6.778;2022-08-24T15:16:17;40.80;17.30
7784;DHT22;19359;51.402;6.778;2022-08-24T15:18:51;39.90;13.20
7784;DHT22;19359;51.402;6.778;2022-08-24T15:21:33;38.90;9.60
7784;DHT22;19359;51.402;6.778;2022-08-24T15:24:10;38.50;8.20
7784;DHT22;19359;51.402;6.778;2022-08-24T15:26:51;36.40;1.00
7784;DHT22;19359;51.402;6.778;2022-08-24T15:29:23;35.80;1.00
7784;DHT22;19359;51.402;6.778;2022-08-24T15:31:56;35.40;1.00
7784;DHT22;19359;51.402;6.778;2022-08-24T15:34:42;36.10;1.00
7784;DHT22;19359;51.402;6.778;2022-08-24T15:37:12;37.70;1.00
7784;DHT22;19359;51.402;6.778;2022-08-24T15:39:40;38.90;1.00
7784;DHT22;19359;51.402;6.778;2022-08-24T15:42:10;38.90;7.60
7784;DHT22;19359;51.402;6.778;2022-08-24T15:44:38;38.80;6.00
7784;DHT22;19359;51.402;6.778;2022-08-24T15:47:16;37.60;1.00
7784;DHT22;19359;51.402;6.778;2022-08-24T15:49:47;37.80;1.00
7784;DHT22;19359;51.402;6.778;2022-08-24T15:52:41;37.40;1.00
7784;DHT22;19359;51.402;6.778;2022-08-24T15:55:15;38.50;1.00
7784;DHT22;19359;51.402;6.778;2022-08-24T15:57:51;39.50;1.00
7784;DHT22;19359;51.402;6.778;2022-08-24T16:00:20;40.20;1.00
7784;DHT22;19359;51.402;6.778;2022-08-24T16:03:18;40.30;4.20
7784;DHT22;19359;51.402;6.778;2022-08-24T16:05:46;40.70;1.90
7784;DHT22;19359;51.402;6.778;2022-08-24T16:08:14;41.90;1.00
7784;DHT22;19359;51.402;6.778;2022-08-24T16:10:45;41.90;1.00
7784;DHT22;19359;51.402;6.778;2022-08-24T16:13:20;41.90;1.00
7784;DHT22;19359;51.402;6.778;2022-08-24T16:15:52;41.80;1.00
7784;DHT22;19359;51.402;6.778;2022-08-24T16:18:24;40.80;1.00
7784;DHT22;19359;51.402;6.778;2022-08-24T16:20:52;40.80;1.00
7784;DHT22;19359;51.402;6.778;2022-08-24T16:23:27;40.50;1.00
7784;DHT22;19359;51.402;6.778;2022-08-24T16:26:17;41.50;1.00
7784;DHT22;19359;51.402;6.778;2022-08-24T16:28:46;42.00;1.00
7784;DHT22;19359;51.402;6.778;2022-08-24T16:31:43;42.10;1.00
7784;DHT22;19359;51.402;6.778;2022-08-24T16:34:26;42.50;1.00
7784;DHT22;19359;51.402;6.778;2022-08-24T16:36:54;41.70;1.00
7784;DHT22;19359;51.402;6.778;2022-08-24T16:39:23;40.70;1.00
7784;DHT22;19359;51.402;6.778;2022-08-24T16:41:50;39.70;1.00
7784;DHT22;19359;51.402;6.778;2022-08-24T16:44:20;38.70;1.00
7784;DHT22;19359;51.402;6.778;2022-08-24T16:46:47;38.60;1.00
7784;DHT22;19359;51.402;6.778;2022-08-24T16:49:14;38.90;1.00
7784;DHT22;19359;51.402;6.778;2022-08-24T16:51:40;38.90;1.00
7784;DHT22;19359;51.402;6.778;2022-08-24T16:54:07;39.90;1.00
7784;DHT22;19359;51.402;6.778;2022-08-24T16:56:35;40.40;1.00
7784;DHT22;19359;51.402;6.778;2022-08-24T16:59:02;40.90;1.00
7784;DHT22;19359;51.402;6.778;2022-08-24T17:01:30;40.80;1.00
7784;DHT22;19359;51.402;6.778;2022-08-24T17:03:57;40.70;1.00
7784;DHT22;19359;51.402;6.778;2022-08-24T17:06:24;40.70;1.00
7784;DHT22;19359;51.402;6.778;2022-08-24T17:08:51;40.80;1.00
7784;DHT22;19359;51.402;6.778;2022-08-24T17:11:18;40.70;1.00
7784;DHT22;19359;51.402;6.778;2022-08-24T17:13:46;40.80;1.00
7784;DHT22;19359;51.402;6.778;2022-08-24T17:16:13;40.60;1.00
7784;DHT22;19359;51.402;6.778;2022-08-24T17:18:39;40.60;1.00
7784;DHT22;19359;51.402;6.778;2022-08-24T17:21:07;40.60;1.00
7784;DHT22;19359;51.402;6.778;2022-08-24T17:23:34;40.50;1.00
7784;DHT22;19359;51.402;6.778;2022-08-24T17:26:04;40.40;1.00